This is the latest recevied weather packets stored in our database for station/object SQ9CIE-4. If no packets are shown the sender has not sent any weather packets the latest 1 day(s).
| Time | Temp. | Humidity | Pressure | Rain* | Wind** | Luminosity | Snow |
|---|---|---|---|---|---|---|---|
| 1777965658 | 22.22° C | 35% | 1009.5 hPa | 0 mm | 4.47 m/s, 156° | 485 W/m² | - |
| 1777965358 | 21.11° C | 35% | 1009.5 hPa | 0 mm | 4.47 m/s, 135° | 424 W/m² | - |
| 1777965058 | 21.11° C | 35% | 1009.6 hPa | 0 mm | 4.02 m/s, 156° | 387 W/m² | - |
| 1777964758 | 21.11° C | 40% | 1009.7 hPa | 0 mm | 1.34 m/s, 219° | 325 W/m² | - |
| 1777964458 | 21.11° C | 40% | 1009.9 hPa | 0 mm | 3.58 m/s, 174° | 322 W/m² | - |
| 1777964158 | 20° C | 41% | 1009.8 hPa | 0 mm | 2.68 m/s, 192° | 321 W/m² | - |
| 1777963858 | 21.11° C | 40% | 1009.9 hPa | 0 mm | 3.58 m/s, 177° | 344 W/m² | - |
| 1777963558 | 20° C | 42% | 1010 hPa | 0 mm | 1.34 m/s, 134° | 384 W/m² | - |
| 1777963258 | 18.89° C | 44% | 1010 hPa | 0 mm | 0.89 m/s, 140° | 346 W/m² | - |
| 1777962958 | 18.89° C | 45% | 1010 hPa | 0 mm | 0.89 m/s, 130° | 326 W/m² | - |
| 1777962658 | 18.89° C | 44% | 1010.2 hPa | 0 mm | 1.79 m/s, 130° | 336 W/m² | - |
| 1777962358 | 18.89° C | 42% | 1010.2 hPa | 0 mm | 3.13 m/s, 143° | 305 W/m² | - |
| 1777962058 | 18.89° C | 43% | 1010.2 hPa | 0 mm | 1.79 m/s, 134° | 301 W/m² | - |
| 1777961758 | 18.89° C | 42% | 1010.3 hPa | 0 mm | 2.24 m/s, 139° | 267 W/m² | - |
| 1777961458 | 17.78° C | 43% | 1010.3 hPa | 0 mm | 1.34 m/s, 129° | 284 W/m² | - |
| 1777961158 | 17.78° C | 44% | 1010.4 hPa | 0 mm | 2.24 m/s, 105° | 268 W/m² | - |
| 1777960858 | 17.78° C | 44% | 1010.6 hPa | 0 mm | 2.24 m/s, 123° | 250 W/m² | - |
| 1777960558 | 17.78° C | 44% | 1010.5 hPa | 0 mm | 1.79 m/s, 122° | 240 W/m² | - |
| 1777960258 | 17.78° C | 44% | 1010.7 hPa | 0 mm | 1.34 m/s, 115° | 188 W/m² | - |
| 1777959958 | 17.22° C | 45% | 1010.6 hPa | 0 mm | 0 m/s | 230 W/m² | - |
| 1777959658 | 17.78° C | 44% | 1010.5 hPa | 0 mm | 2.24 m/s, 108° | 224 W/m² | - |
| 1777959358 | 17.22° C | 46% | 1010.8 hPa | 0 mm | 1.34 m/s, 92° | 209 W/m² | - |
| 1777959058 | 16.11° C | 47% | 1010.7 hPa | 0 mm | 1.79 m/s, 92° | 196 W/m² | - |
| 1777958758 | 16.11° C | 46% | 1010.9 hPa | 0 mm | 1.34 m/s, 85° | 164 W/m² | - |
| 1777958458 | 16.11° C | 45% | 1011 hPa | 0 mm | 1.34 m/s, 84° | 169 W/m² | - |
* Rain latest hour (hover to see other rain measurements)
** Current wind speed in m/s (hover to see current wind gust speed)